sensor_id;sensor_type;location;lat;lon;timestamp;pressure;altitude;pressure_sealevel;temperature
19061;BMP280;9663;48.996;8.334;2022-08-30T00:00:19;100432.56;;;25.41
19061;BMP280;9663;48.996;8.334;2022-08-30T00:03:06;100430.31;;;25.35
19061;BMP280;9663;48.996;8.334;2022-08-30T00:05:33;100424.59;;;25.30
19061;BMP280;9663;48.996;8.334;2022-08-30T00:07:59;100432.66;;;25.26
19061;BMP280;9663;48.996;8.334;2022-08-30T00:10:27;100430.25;;;25.23
19061;BMP280;9663;48.996;8.334;2022-08-30T00:12:55;100436.53;;;25.19
19061;BMP280;9663;48.996;8.334;2022-08-30T00:15:21;100440.19;;;25.16
19061;BMP280;9663;48.996;8.334;2022-08-30T00:17:48;100439.44;;;25.14
19061;BMP280;9663;48.996;8.334;2022-08-30T00:20:19;100434.34;;;25.13
19061;BMP280;9663;48.996;8.334;2022-08-30T00:22:46;100430.88;;;25.12
19061;BMP280;9663;48.996;8.334;2022-08-30T00:25:13;100435.25;;;25.12
19061;BMP280;9663;48.996;8.334;2022-08-30T00:27:39;100428.50;;;25.09
19061;BMP280;9663;48.996;8.334;2022-08-30T00:30:08;100441.47;;;25.09
19061;BMP280;9663;48.996;8.334;2022-08-30T00:32:34;100438.75;;;25.11
19061;BMP280;9663;48.996;8.334;2022-08-30T00:35:02;100431.84;;;25.11
19061;BMP280;9663;48.996;8.334;2022-08-30T00:37:28;100437.13;;;25.10
19061;BMP280;9663;48.996;8.334;2022-08-30T00:39:53;100432.00;;;25.08
19061;BMP280;9663;48.996;8.334;2022-08-30T00:42:20;100436.47;;;25.06
19061;BMP280;9663;48.996;8.334;2022-08-30T00:44:47;100431.38;;;25.05
19061;BMP280;9663;48.996;8.334;2022-08-30T00:47:13;100433.22;;;25.03
19061;BMP280;9663;48.996;8.334;2022-08-30T00:49:44;100428.03;;;25.03
19061;BMP280;9663;48.996;8.334;2022-08-30T00:52:11;100433.31;;;25.01
19061;BMP280;9663;48.996;8.334;2022-08-30T00:54:40;100429.88;;;25.01
19061;BMP280;9663;48.996;8.334;2022-08-30T00:57:06;100427.28;;;25.01
19061;BMP280;9663;48.996;8.334;2022-08-30T00:59:33;100434.88;;;25.04
19061;BMP280;9663;48.996;8.334;2022-08-30T01:02:01;100430.44;;;25.06
19061;BMP280;9663;48.996;8.334;2022-08-30T01:04:28;100438.03;;;25.09
19061;BMP280;9663;48.996;8.334;2022-08-30T01:06:56;100436.94;;;25.13
19061;BMP280;9663;48.996;8.334;2022-08-30T01:09:22;100440.28;;;25.15
19061;BMP280;9663;48.996;8.334;2022-08-30T01:11:48;100424.53;;;25.18
19061;BMP280;9663;48.996;8.334;2022-08-30T01:14:16;100428.59;;;25.22
19061;BMP280;9663;48.996;8.334;2022-08-30T01:16:43;100426.72;;;25.24
19061;BMP280;9663;48.996;8.334;2022-08-30T01:25:09;100418.09;;;25.23
19061;BMP280;9663;48.996;8.334;2022-08-30T01:27:42;100424.13;;;25.24
19061;BMP280;9663;48.996;8.334;2022-08-30T01:30:10;100421.63;;;25.22
19061;BMP280;9663;48.996;8.334;2022-08-30T01:32:43;100420.06;;;25.20
19061;BMP280;9663;48.996;8.334;2022-08-30T01:35:16;100422.00;;;25.16
19061;BMP280;9663;48.996;8.334;2022-08-30T01:37:44;100416.19;;;25.13
19061;BMP280;9663;48.996;8.334;2022-08-30T01:40:13;100420.50;;;25.12
19061;BMP280;9663;48.996;8.334;2022-08-30T01:42:40;100419.88;;;25.09
19061;BMP280;9663;48.996;8.334;2022-08-30T01:45:08;100412.25;;;25.06
19061;BMP280;9663;48.996;8.334;2022-08-30T01:47:34;100427.28;;;25.01
19061;BMP280;9663;48.996;8.334;2022-08-30T01:50:00;100432.66;;;24.98
19061;BMP280;9663;48.996;8.334;2022-08-30T01:52:27;100426.78;;;24.94
19061;BMP280;9663;48.996;8.334;2022-08-30T01:54:53;100431.31;;;24.91
19061;BMP280;9663;48.996;8.334;2022-08-30T01:57:22;100428.94;;;24.88
19061;BMP280;9663;48.996;8.334;2022-08-30T01:59:48;100424.81;;;24.84
19061;BMP280;9663;48.996;8.334;2022-08-30T02:02:26;100410.47;;;24.79
19061;BMP280;9663;48.996;8.334;2022-08-30T02:04:53;100418.41;;;24.76
19061;BMP280;9663;48.996;8.334;2022-08-30T02:07:21;100411.75;;;24.72
19061;BMP280;9663;48.996;8.334;2022-08-30T02:09:47;100404.06;;;24.70
19061;BMP280;9663;48.996;8.334;2022-08-30T02:12:12;100409.53;;;24.66
19061;BMP280;9663;48.996;8.334;2022-08-30T02:14:39;100427.94;;;24.61
19061;BMP280;9663;48.996;8.334;2022-08-30T02:17:08;100421.34;;;24.56
19061;BMP280;9663;48.996;8.334;2022-08-30T02:19:35;100424.94;;;24.53
19061;BMP280;9663;48.996;8.334;2022-08-30T02:22:01;100426.88;;;24.50
19061;BMP280;9663;48.996;8.334;2022-08-30T02:24:27;100421.03;;;24.47
19061;BMP280;9663;48.996;8.334;2022-08-30T02:26:53;100416.81;;;24.46
19061;BMP280;9663;48.996;8.334;2022-08-30T02:29:21;100409.09;;;24.44
19061;BMP280;9663;48.996;8.334;2022-08-30T02:31:48;100407.50;;;24.42
19061;BMP280;9663;48.996;8.334;2022-08-30T02:34:15;100410.19;;;24.40
19061;BMP280;9663;48.996;8.334;2022-08-30T02:36:41;100408.72;;;24.36
19061;BMP280;9663;48.996;8.334;2022-08-30T02:39:10;100407.13;;;24.34
19061;BMP280;9663;48.996;8.334;2022-08-30T02:41:38;100396.16;;;24.29
19061;BMP280;9663;48.996;8.334;2022-08-30T02:44:06;100402.34;;;24.26
19061;BMP280;9663;48.996;8.334;2022-08-30T02:46:32;100400.66;;;24.25
19061;BMP280;9663;48.996;8.334;2022-08-30T02:48:58;100396.44;;;24.24
19061;BMP280;9663;48.996;8.334;2022-08-30T02:51:24;100403.44;;;24.22
19061;BMP280;9663;48.996;8.334;2022-08-30T02:53:50;100399.28;;;24.20
19061;BMP280;9663;48.996;8.334;2022-08-30T02:56:16;100392.59;;;24.16
19061;BMP280;9663;48.996;8.334;2022-08-30T02:58:43;100389.25;;;24.14
19061;BMP280;9663;48.996;8.334;2022-08-30T03:01:13;100389.53;;;24.09
19061;BMP280;9663;48.996;8.334;2022-08-30T03:03:41;100387.94;;;24.07
19061;BMP280;9663;48.996;8.334;2022-08-30T03:06:07;100383.88;;;24.03
19061;BMP280;9663;48.996;8.334;2022-08-30T03:08:35;100384.13;;;23.99
19061;BMP280;9663;48.996;8.334;2022-08-30T03:11:01;100387.63;;;23.98
19061;BMP280;9663;48.996;8.334;2022-08-30T03:13:29;100385.09;;;23.96
19061;BMP280;9663;48.996;8.334;2022-08-30T03:15:56;100381.78;;;23.94
19061;BMP280;9663;48.996;8.334;2022-08-30T03:18:23;100389.53;;;23.94
19061;BMP280;9663;48.996;8.334;2022-08-30T03:20:49;100385.31;;;23.93
19061;BMP280;9663;48.996;8.334;2022-08-30T03:23:17;100383.63;;;23.92
19061;BMP280;9663;48.996;8.334;2022-08-30T03:25:43;100372.53;;;23.90
19061;BMP280;9663;48.996;8.334;2022-08-30T03:28:09;100372.69;;;23.87
19061;BMP280;9663;48.996;8.334;2022-08-30T03:30:35;100381.38;;;23.86
19061;BMP280;9663;48.996;8.334;2022-08-30T03:33:01;100379.88;;;23.82
19061;BMP280;9663;48.996;8.334;2022-08-30T03:35:27;100380.69;;;23.83
19061;BMP280;9663;48.996;8.334;2022-08-30T03:37:53;100371.38;;;23.80
19061;BMP280;9663;48.996;8.334;2022-08-30T03:40:21;100371.38;;;23.80
19061;BMP280;9663;48.996;8.334;2022-08-30T03:42:47;100374.13;;;23.77
19061;BMP280;9663;48.996;8.334;2022-08-30T03:45:16;100371.53;;;23.77
19061;BMP280;9663;48.996;8.334;2022-08-30T03:47:43;100380.22;;;23.76
19061;BMP280;9663;48.996;8.334;2022-08-30T03:50:11;100372.53;;;23.75
19061;BMP280;9663;48.996;8.334;2022-08-30T03:52:36;100373.63;;;23.71
19061;BMP280;9663;48.996;8.334;2022-08-30T03:55:03;100375.47;;;23.69
19061;BMP280;9663;48.996;8.334;2022-08-30T03:57:29;100378.13;;;23.67
19061;BMP280;9663;48.996;8.334;2022-08-30T03:59:55;100373.03;;;23.66
19061;BMP280;9663;48.996;8.334;2022-08-30T04:02:21;100371.47;;;23.63
19061;BMP280;9663;48.996;8.334;2022-08-30T04:04:47;100381.09;;;23.60
19061;BMP280;9663;48.996;8.334;2022-08-30T04:07:13;100372.59;;;23.58
19061;BMP280;9663;48.996;8.334;2022-08-30T04:09:39;100372.69;;;23.57
19061;BMP280;9663;48.996;8.334;2022-08-30T04:12:05;100379.69;;;23.55
19061;BMP280;9663;48.996;8.334;2022-08-30T04:14:31;100381.53;;;23.53
19061;BMP280;9663;48.996;8.334;2022-08-30T04:16:56;100381.63;;;23.51
19061;BMP280;9663;48.996;8.334;2022-08-30T04:19:23;100394.56;;;23.51
19061;BMP280;9663;48.996;8.334;2022-08-30T04:21:48;100389.47;;;23.50
19061;BMP280;9663;48.996;8.334;2022-08-30T04:24:14;100399.97;;;23.47
19061;BMP280;9663;48.996;8.334;2022-08-30T04:26:40;100391.38;;;23.46
19061;BMP280;9663;48.996;8.334;2022-08-30T04:29:06;100394.06;;;23.45
19061;BMP280;9663;48.996;8.334;2022-08-30T04:31:32;100384.81;;;23.41
19061;BMP280;9663;48.996;8.334;2022-08-30T04:33:58;100379.78;;;23.38
19061;BMP280;9663;48.996;8.334;2022-08-30T04:36:24;100385.03;;;23.36
19061;BMP280;9663;48.996;8.334;2022-08-30T04:38:50;100386.03;;;23.34
19061;BMP280;9663;48.996;8.334;2022-08-30T04:41:18;100388.69;;;23.32
19061;BMP280;9663;48.996;8.334;2022-08-30T04:43:46;100394.81;;;23.31
19061;BMP280;9663;48.996;8.334;2022-08-30T04:46:15;100398.38;;;23.29
19061;BMP280;9663;48.996;8.334;2022-08-30T04:48:40;100395.03;;;23.27
19061;BMP280;9663;48.996;8.334;2022-08-30T04:51:11;100402.81;;;23.27
19061;BMP280;9663;48.996;8.334;2022-08-30T04:53:40;100401.16;;;23.26
19061;BMP280;9663;48.996;8.334;2022-08-30T04:56:09;100389.13;;;23.25
19061;BMP280;9663;48.996;8.334;2022-08-30T04:58:35;100383.19;;;23.23
19061;BMP280;9663;48.996;8.334;2022-08-30T05:01:02;100389.28;;;23.22
19061;BMP280;9663;48.996;8.334;2022-08-30T05:03:28;100390.09;;;23.22
19061;BMP280;9663;48.996;8.334;2022-08-30T05:05:54;100393.47;;;23.24
19061;BMP280;9663;48.996;8.334;2022-08-30T05:08:21;100390.03;;;23.24
19061;BMP280;9663;48.996;8.334;2022-08-30T05:10:50;100391.72;;;23.25
19061;BMP280;9663;48.996;8.334;2022-08-30T05:13:19;100392.53;;;23.25
19061;BMP280;9663;48.996;8.334;2022-08-30T05:15:46;100396.81;;;23.26
19061;BMP280;9663;48.996;8.334;2022-08-30T05:18:12;100408.72;;;23.29
19061;BMP280;9663;48.996;8.334;2022-08-30T05:20:41;100410.41;;;23.30
19061;BMP280;9663;48.996;8.334;2022-08-30T05:23:07;100422.34;;;23.32
19061;BMP280;9663;48.996;8.334;2022-08-30T05:25:39;100416.09;;;23.36
19061;BMP280;9663;48.996;8.334;2022-08-30T05:28:05;100421.19;;;23.38
19061;BMP280;9663;48.996;8.334;2022-08-30T05:30:35;100430.44;;;23.42
19061;BMP280;9663;48.996;8.334;2022-08-30T05:33:01;100432.06;;;23.44
19061;BMP280;9663;48.996;8.334;2022-08-30T05:35:28;100431.78;;;23.49
19061;BMP280;9663;48.996;8.334;2022-08-30T05:37:54;100427.31;;;23.52
19061;BMP280;9663;48.996;8.334;2022-08-30T05:40:20;100431.31;;;23.58
19061;BMP280;9663;48.996;8.334;2022-08-30T05:42:46;100428.50;;;23.62
19061;BMP280;9663;48.996;8.334;2022-08-30T05:45:13;100418.81;;;23.65
19061;BMP280;9663;48.996;8.334;2022-08-30T05:47:40;100406.53;;;23.69
19061;BMP280;9663;48.996;8.334;2022-08-30T05:50:07;100408.97;;;23.72
19061;BMP280;9663;48.996;8.334;2022-08-30T05:52:41;100421.66;;;23.76
19061;BMP280;9663;48.996;8.334;2022-08-30T05:55:09;100411.88;;;23.81
19061;BMP280;9663;48.996;8.334;2022-08-30T05:57:38;100414.94;;;23.88
19061;BMP280;9663;48.996;8.334;2022-08-30T06:00:09;100415.44;;;23.94
19061;BMP280;9663;48.996;8.334;2022-08-30T06:02:35;100417.78;;;23.99
19061;BMP280;9663;48.996;8.334;2022-08-30T06:05:02;100418.38;;;24.03
19061;BMP280;9663;48.996;8.334;2022-08-30T06:07:29;100419.84;;;24.07
19061;BMP280;9663;48.996;8.334;2022-08-30T06:09:55;100419.59;;;24.12
19061;BMP280;9663;48.996;8.334;2022-08-30T06:12:21;100424.44;;;24.18
19061;BMP280;9663;48.996;8.334;2022-08-30T06:14:47;100417.25;;;24.23
19061;BMP280;9663;48.996;8.334;2022-08-30T06:17:12;100422.06;;;24.29
19061;BMP280;9663;48.996;8.334;2022-08-30T06:19:38;100406.13;;;24.36
19061;BMP280;9663;48.996;8.334;2022-08-30T06:22:04;100410.84;;;24.44
19061;BMP280;9663;48.996;8.334;2022-08-30T06:24:30;100406.91;;;24.52
19061;BMP280;9663;48.996;8.334;2022-08-30T06:26:56;100415.06;;;24.60
19061;BMP280;9663;48.996;8.334;2022-08-30T06:29:21;100418.78;;;24.70
19061;BMP280;9663;48.996;8.334;2022-08-30T06:31:47;100416.47;;;24.79
19061;BMP280;9663;48.996;8.334;2022-08-30T06:34:14;100405.66;;;24.87
19061;BMP280;9663;48.996;8.334;2022-08-30T06:36:40;100421.53;;;24.96
19061;BMP280;9663;48.996;8.334;2022-08-30T06:39:08;100422.38;;;25.10
19061;BMP280;9663;48.996;8.334;2022-08-30T06:41:37;100424.97;;;25.24
19061;BMP280;9663;48.996;8.334;2022-08-30T06:44:05;100426.53;;;25.40
19061;BMP280;9663;48.996;8.334;2022-08-30T06:46:35;100427.34;;;25.55
19061;BMP280;9663;48.996;8.334;2022-08-30T06:49:03;100424.84;;;25.67
19061;BMP280;9663;48.996;8.334;2022-08-30T06:51:35;100426.75;;;25.77
19061;BMP280;9663;48.996;8.334;2022-08-30T06:54:03;100423.97;;;25.80
19061;BMP280;9663;48.996;8.334;2022-08-30T06:56:30;100428.78;;;25.86
19061;BMP280;9663;48.996;8.334;2022-08-30T06:58:56;100434.97;;;25.98
19061;BMP280;9663;48.996;8.334;2022-08-30T07:01:25;100427.94;;;26.12
19061;BMP280;9663;48.996;8.334;2022-08-30T07:03:52;100425.31;;;26.26
19061;BMP280;9663;48.996;8.334;2022-08-30T07:06:19;100429.31;;;26.44
19061;BMP280;9663;48.996;8.334;2022-08-30T07:08:46;100433.28;;;26.62
19061;BMP280;9663;48.996;8.334;2022-08-30T07:11:14;100435.63;;;26.78
19061;BMP280;9663;48.996;8.334;2022-08-30T07:13:39;100427.63;;;26.94
19061;BMP280;9663;48.996;8.334;2022-08-30T07:16:11;100431.88;;;27.07
19061;BMP280;9663;48.996;8.334;2022-08-30T07:18:37;100426.69;;;27.19
19061;BMP280;9663;48.996;8.334;2022-08-30T07:21:18;100419.59;;;27.34
19061;BMP280;9663;48.996;8.334;2022-08-30T07:23:46;100421.25;;;27.47
19061;BMP280;9663;48.996;8.334;2022-08-30T07:26:23;100421.81;;;27.63
19061;BMP280;9663;48.996;8.334;2022-08-30T07:28:53;100423.06;;;27.70
19061;BMP280;9663;48.996;8.334;2022-08-30T07:31:19;100423.56;;;27.75
19061;BMP280;9663;48.996;8.334;2022-08-30T07:33:46;100423.22;;;27.79
19061;BMP280;9663;48.996;8.334;2022-08-30T07:36:13;100428.41;;;27.92
19061;BMP280;9663;48.996;8.334;2022-08-30T07:38:40;100424.72;;;28.06
19061;BMP280;9663;48.996;8.334;2022-08-30T07:41:06;100426.69;;;28.26
19061;BMP280;9663;48.996;8.334;2022-08-30T07:43:33;100427.84;;;28.45
19061;BMP280;9663;48.996;8.334;2022-08-30T07:46:06;100425.84;;;28.60
19061;BMP280;9663;48.996;8.334;2022-08-30T07:48:33;100422.47;;;28.70
19061;BMP280;9663;48.996;8.334;2022-08-30T07:50:59;100423.66;;;28.77
19061;BMP280;9663;48.996;8.334;2022-08-30T07:53:25;100426.41;;;28.86
19061;BMP280;9663;48.996;8.334;2022-08-30T07:55:50;100421.44;;;28.94
19061;BMP280;9663;48.996;8.334;2022-08-30T07:58:16;100418.56;;;28.97
19061;BMP280;9663;48.996;8.334;2022-08-30T08:00:42;100408.63;;;29.02
19061;BMP280;9663;48.996;8.334;2022-08-30T08:03:09;100417.91;;;29.06
19061;BMP280;9663;48.996;8.334;2022-08-30T08:05:44;100413.59;;;29.05
19061;BMP280;9663;48.996;8.334;2022-08-30T08:08:11;100417.19;;;29.04
19061;BMP280;9663;48.996;8.334;2022-08-30T08:10:40;100410.88;;;29.07
19061;BMP280;9663;48.996;8.334;2022-08-30T08:13:06;100409.84;;;29.09
19061;BMP280;9663;48.996;8.334;2022-08-30T08:15:32;100422.28;;;29.17
19061;BMP280;9663;48.996;8.334;2022-08-30T08:17:58;100423.50;;;29.24
19061;BMP280;9663;48.996;8.334;2022-08-30T08:20:26;100420.19;;;29.32
19061;BMP280;9663;48.996;8.334;2022-08-30T08:22:52;100416.72;;;29.43
19061;BMP280;9663;48.996;8.334;2022-08-30T08:25:18;100426.47;;;29.52
19061;BMP280;9663;48.996;8.334;2022-08-30T08:27:46;100423.22;;;29.59
19061;BMP280;9663;48.996;8.334;2022-08-30T08:30:13;100416.44;;;29.68
19061;BMP280;9663;48.996;8.334;2022-08-30T08:32:39;100415.75;;;29.76
19061;BMP280;9663;48.996;8.334;2022-08-30T08:35:05;100409.06;;;29.83
19061;BMP280;9663;48.996;8.334;2022-08-30T08:37:31;100412.59;;;30.24
19061;BMP280;9663;48.996;8.334;2022-08-30T08:39:56;100413.38;;;30.15
19061;BMP280;9663;48.996;8.334;2022-08-30T08:42:50;100409.28;;;30.22
19061;BMP280;9663;48.996;8.334;2022-08-30T08:45:33;100411.25;;;30.41
19061;BMP280;9663;48.996;8.334;2022-08-30T08:48:09;100407.72;;;30.51
19061;BMP280;9663;48.996;8.334;2022-08-30T08:50:36;100403.50;;;30.59
19061;BMP280;9663;48.996;8.334;2022-08-30T08:53:11;100397.53;;;30.68
19061;BMP280;9663;48.996;8.334;2022-08-30T08:55:57;100402.81;;;30.78
19061;BMP280;9663;48.996;8.334;2022-08-30T08:58:52;100397.66;;;30.87
19061;BMP280;9663;48.996;8.334;2022-08-30T09:01:28;100388.34;;;31.03
19061;BMP280;9663;48.996;8.334;2022-08-30T09:04:02;100395.44;;;31.12
19061;BMP280;9663;48.996;8.334;2022-08-30T09:06:45;100392.69;;;31.14
19061;BMP280;9663;48.996;8.334;2022-08-30T09:09:15;100381.66;;;31.20
19061;BMP280;9663;48.996;8.334;2022-08-30T09:11:42;100384.63;;;31.36
19061;BMP280;9663;48.996;8.334;2022-08-30T09:14:16;100389.34;;;31.42
19061;BMP280;9663;48.996;8.334;2022-08-30T09:17:06;100389.69;;;31.67
19061;BMP280;9663;48.996;8.334;2022-08-30T09:19:37;100384.44;;;31.67
19061;BMP280;9663;48.996;8.334;2022-08-30T09:25:19;100383.09;;;31.82
19061;BMP280;9663;48.996;8.334;2022-08-30T09:27:49;100382.72;;;31.95
19061;BMP280;9663;48.996;8.334;2022-08-30T09:30:26;100371.69;;;32.11
19061;BMP280;9663;48.996;8.334;2022-08-30T09:33:02;100372.22;;;32.24
19061;BMP280;9663;48.996;8.334;2022-08-30T09:35:48;100367.50;;;32.36
19061;BMP280;9663;48.996;8.334;2022-08-30T09:38:25;100366.28;;;32.50
19061;BMP280;9663;48.996;8.334;2022-08-30T09:40:56;100369.53;;;32.61
19061;BMP280;9663;48.996;8.334;2022-08-30T09:43:33;100357.25;;;32.71
19061;BMP280;9663;48.996;8.334;2022-08-30T09:56:29;100354.81;;;33.23
19061;BMP280;9663;48.996;8.334;2022-08-30T09:59:02;100351.94;;;33.70
19061;BMP280;9663;48.996;8.334;2022-08-30T10:01:38;100340.88;;;33.66
19061;BMP280;9663;48.996;8.334;2022-08-30T10:04:37;100339.38;;;33.64
19061;BMP280;9663;48.996;8.334;2022-08-30T10:07:26;100329.91;;;33.71
19061;BMP280;9663;48.996;8.334;2022-08-30T10:10:24;100331.13;;;34.11
19061;BMP280;9663;48.996;8.334;2022-08-30T10:13:14;100336.31;;;34.20
19061;BMP280;9663;48.996;8.334;2022-08-30T10:15:57;100326.00;;;34.09
19061;BMP280;9663;48.996;8.334;2022-08-30T10:21:47;100317.59;;;34.31
19061;BMP280;9663;48.996;8.334;2022-08-30T10:24:18;100305.56;;;34.46
19061;BMP280;9663;48.996;8.334;2022-08-30T10:26:56;100310.78;;;34.63
19061;BMP280;9663;48.996;8.334;2022-08-30T10:29:39;100309.34;;;34.77
19061;BMP280;9663;48.996;8.334;2022-08-30T10:32:27;100305.97;;;35.25
19061;BMP280;9663;48.996;8.334;2022-08-30T10:35:28;100302.09;;;35.12
19061;BMP280;9663;48.996;8.334;2022-08-30T10:38:09;100297.72;;;35.28
19061;BMP280;9663;48.996;8.334;2022-08-30T10:40:41;100282.97;;;35.67
19061;BMP280;9663;48.996;8.334;2022-08-30T10:43:32;100295.50;;;35.57
19061;BMP280;9663;48.996;8.334;2022-08-30T10:46:15;100291.53;;;35.45
19061;BMP280;9663;48.996;8.334;2022-08-30T10:48:44;100295.63;;;35.40
19061;BMP280;9663;48.996;8.334;2022-08-30T10:51:28;100286.09;;;35.46
19061;BMP280;9663;48.996;8.334;2022-08-30T10:54:07;100286.63;;;35.58
19061;BMP280;9663;48.996;8.334;2022-08-30T10:56:36;100281.50;;;35.72
19061;BMP280;9663;48.996;8.334;2022-08-30T10:59:05;100283.00;;;35.90
19061;BMP280;9663;48.996;8.334;2022-08-30T11:13:11;100274.34;;;37.06
19061;BMP280;9663;48.996;8.334;2022-08-30T11:16:16;100274.88;;;36.93
19061;BMP280;9663;48.996;8.334;2022-08-30T11:18:51;100271.38;;;37.09
19061;BMP280;9663;48.996;8.334;2022-08-30T11:21:39;100276.31;;;37.42
19061;BMP280;9663;48.996;8.334;2022-08-30T11:24:15;100275.50;;;37.63
19061;BMP280;9663;48.996;8.334;2022-08-30T11:29:42;100277.88;;;37.81
19061;BMP280;9663;48.996;8.334;2022-08-30T11:37:42;100269.53;;;37.69
19061;BMP280;9663;48.996;8.334;2022-08-30T11:42:52;100273.06;;;38.78
19061;BMP280;9663;48.996;8.334;2022-08-30T11:50:29;100269.34;;;40.26
19061;BMP280;9663;48.996;8.334;2022-08-30T11:56:22;100265.56;;;40.75
19061;BMP280;9663;48.996;8.334;2022-08-30T12:01:45;100268.53;;;41.52
19061;BMP280;9663;48.996;8.334;2022-08-30T12:06:58;100239.38;;;42.60
19061;BMP280;9663;48.996;8.334;2022-08-30T12:20:39;100244.25;;;45.81
19061;BMP280;9663;48.996;8.334;2022-08-30T12:25:48;100241.81;;;46.59
19061;BMP280;9663;48.996;8.334;2022-08-30T12:28:24;100230.25;;;46.70
19061;BMP280;9663;48.996;8.334;2022-08-30T12:30:52;100225.75;;;46.87
19061;BMP280;9663;48.996;8.334;2022-08-30T12:33:36;100221.72;;;47.01
19061;BMP280;9663;48.996;8.334;2022-08-30T12:36:02;100227.91;;;47.29
19061;BMP280;9663;48.996;8.334;2022-08-30T12:38:28;100222.81;;;47.60
19061;BMP280;9663;48.996;8.334;2022-08-30T12:40:58;100226.50;;;47.87
19061;BMP280;9663;48.996;8.334;2022-08-30T12:43:35;100219.00;;;48.05
19061;BMP280;9663;48.996;8.334;2022-08-30T12:46:09;100218.00;;;48.11
19061;BMP280;9663;48.996;8.334;2022-08-30T12:48:39;100210.56;;;48.18
19061;BMP280;9663;48.996;8.334;2022-08-30T12:51:06;100196.63;;;48.21
19061;BMP280;9663;48.996;8.334;2022-08-30T12:53:39;100203.78;;;48.32
19061;BMP280;9663;48.996;8.334;2022-08-30T12:56:15;100201.34;;;48.52
19061;BMP280;9663;48.996;8.334;2022-08-30T12:59:05;100201.88;;;48.75
19061;BMP280;9663;48.996;8.334;2022-08-30T13:01:33;100195.38;;;48.92
19061;BMP280;9663;48.996;8.334;2022-08-30T13:04:19;100192.59;;;49.09
19061;BMP280;9663;48.996;8.334;2022-08-30T13:06:52;100187.75;;;49.37
19061;BMP280;9663;48.996;8.334;2022-08-30T13:11:54;100186.47;;;49.44
19061;BMP280;9663;48.996;8.334;2022-08-30T13:14:28;100187.59;;;49.53
19061;BMP280;9663;48.996;8.334;2022-08-30T13:19:57;100182.94;;;49.80
19061;BMP280;9663;48.996;8.334;2022-08-30T13:22:31;100175.59;;;50.02
19061;BMP280;9663;48.996;8.334;2022-08-30T13:24:58;100161.34;;;50.21
19061;BMP280;9663;48.996;8.334;2022-08-30T13:27:25;100156.88;;;50.36
19061;BMP280;9663;48.996;8.334;2022-08-30T13:29:51;100166.91;;;50.50
19061;BMP280;9663;48.996;8.334;2022-08-30T13:32:17;100156.91;;;50.46
19061;BMP280;9663;48.996;8.334;2022-08-30T13:34:44;100159.16;;;50.08
19061;BMP280;9663;48.996;8.334;2022-08-30T13:37:18;100160.41;;;49.23
19061;BMP280;9663;48.996;8.334;2022-08-30T13:39:44;100161.97;;;48.25
19061;BMP280;9663;48.996;8.334;2022-08-30T13:42:10;100152.09;;;47.38
19061;BMP280;9663;48.996;8.334;2022-08-30T13:44:36;100152.88;;;46.40
19061;BMP280;9663;48.996;8.334;2022-08-30T13:47:02;100152.25;;;45.76
19061;BMP280;9663;48.996;8.334;2022-08-30T13:49:34;100150.69;;;45.23
19061;BMP280;9663;48.996;8.334;2022-08-30T13:52:03;100151.81;;;44.68
19061;BMP280;9663;48.996;8.334;2022-08-30T13:54:29;100156.47;;;44.26
19061;BMP280;9663;48.996;8.334;2022-08-30T13:56:55;100150.75;;;44.05
19061;BMP280;9663;48.996;8.334;2022-08-30T13:59:22;100145.81;;;44.08
19061;BMP280;9663;48.996;8.334;2022-08-30T14:01:49;100143.53;;;44.59
19061;BMP280;9663;48.996;8.334;2022-08-30T14:04:15;100139.25;;;45.39
19061;BMP280;9663;48.996;8.334;2022-08-30T14:06:41;100135.09;;;46.22
19061;BMP280;9663;48.996;8.334;2022-08-30T14:09:08;100133.09;;;46.85
19061;BMP280;9663;48.996;8.334;2022-08-30T14:11:35;100130.59;;;47.38
19061;BMP280;9663;48.996;8.334;2022-08-30T14:14:02;100115.34;;;47.77
19061;BMP280;9663;48.996;8.334;2022-08-30T14:16:28;100114.69;;;48.07
19061;BMP280;9663;48.996;8.334;2022-08-30T14:18:58;100112.63;;;48.35
19061;BMP280;9663;48.996;8.334;2022-08-30T14:21:24;100112.53;;;48.73
19061;BMP280;9663;48.996;8.334;2022-08-30T14:23:51;100103.22;;;49.12
19061;BMP280;9663;48.996;8.334;2022-08-30T14:26:22;100101.34;;;49.48
19061;BMP280;9663;48.996;8.334;2022-08-30T14:28:49;100096.38;;;49.71
19061;BMP280;9663;48.996;8.334;2022-08-30T14:31:15;100095.66;;;49.86
19061;BMP280;9663;48.996;8.334;2022-08-30T14:33:41;100093.78;;;49.91
19061;BMP280;9663;48.996;8.334;2022-08-30T14:36:08;100094.59;;;49.87
19061;BMP280;9663;48.996;8.334;2022-08-30T14:38:37;100080.84;;;49.83
19061;BMP280;9663;48.996;8.334;2022-08-30T14:41:05;100095.56;;;49.66
19061;BMP280;9663;48.996;8.334;2022-08-30T14:43:31;100091.78;;;49.62
19061;BMP280;9663;48.996;8.334;2022-08-30T14:46:01;100088.81;;;49.63
19061;BMP280;9663;48.996;8.334;2022-08-30T14:48:27;100095.56;;;49.66
19061;BMP280;9663;48.996;8.334;2022-08-30T14:50:52;100101.88;;;49.45
19061;BMP280;9663;48.996;8.334;2022-08-30T14:53:18;100088.13;;;49.11
19061;BMP280;9663;48.996;8.334;2022-08-30T14:55:44;100098.47;;;48.66
19061;BMP280;9663;48.996;8.334;2022-08-30T14:58:10;100087.34;;;48.58
19061;BMP280;9663;48.996;8.334;2022-08-30T15:00:38;100098.13;;;47.94
19061;BMP280;9663;48.996;8.334;2022-08-30T15:03:04;100087.13;;;47.58
19061;BMP280;9663;48.996;8.334;2022-08-30T15:05:30;100091.78;;;47.13
19061;BMP280;9663;48.996;8.334;2022-08-30T15:07:57;100096.34;;;46.69
19061;BMP280;9663;48.996;8.334;2022-08-30T15:10:23;100092.84;;;46.29
19061;BMP280;9663;48.996;8.334;2022-08-30T15:12:50;100093.25;;;46.10
19061;BMP280;9663;48.996;8.334;2022-08-30T15:15:20;100089.84;;;45.87
19061;BMP280;9663;48.996;8.334;2022-08-30T15:17:47;100094.59;;;45.51
19061;BMP280;9663;48.996;8.334;2022-08-30T15:20:14;100100.50;;;45.30
19061;BMP280;9663;48.996;8.334;2022-08-30T15:22:43;100095.72;;;45.32
19061;BMP280;9663;48.996;8.334;2022-08-30T15:25:09;100093.88;;;45.66
19061;BMP280;9663;48.996;8.334;2022-08-30T15:27:35;100090.69;;;46.15
19061;BMP280;9663;48.996;8.334;2022-08-30T15:30:03;100082.94;;;46.69
19061;BMP280;9663;48.996;8.334;2022-08-30T15:32:28;100088.03;;;47.31
19061;BMP280;9663;48.996;8.334;2022-08-30T15:34:54;100081.75;;;47.95
19061;BMP280;9663;48.996;8.334;2022-08-30T15:37:20;100075.16;;;48.50
19061;BMP280;9663;48.996;8.334;2022-08-30T15:39:48;100070.06;;;48.80